Yigo, Guam
Current Conditions -  °F | °C
As of 8:03 PM on Friday 19 Dec 2014 (Local Time) from PGUA Reporting Station
Broken Clouds Broken Clouds  
Wind Chill: 26°   Ceiling: 2100
Heat Index: 28°   Visibility: 10mi
Dew Point: 23°   Wind: 26mph
Humidity: 83%   Direction: 60°ENE
Pressure: 29.96"   Gusts: 33mph
Location:  13.53°N, 144.89°E
Report Text: PGUA 191003Z AUTO 06023G29KT 10SM BKN021 BKN031 26/23 A2996 RMK AO2 CIG 020V032 BKN021 V SCT
Loading
Personal Weather Stations






























Interactive Weather Map New forecast layout! Learn more

10-Day Weather Forecast

Advertisements
Track Severe Weather on mobile